• Join FlightAware (Why Join?)
  • Login
  • US Flag 
Gobble Gobble! 
12:21PM EST


 

Airport Tracker/Info


-or-


 

Live Flight TrackerFlight Track Log ✈ BOE2 ✈ 14-Jan-2010 ✈ KBFI - KPAE

Flight Track Log - Related Links

Times and Time Zones

All times are in EST time to prevent confusion due to time zone crossing. See the BOE2 flight status page for this flight to view local times or setup timezone preferences in your user account.

Time Position Orientation Groundspeed Altitude Reporting Facility
EST Latitude Longitude Course Direction KTS MPH feet Rate Location/Type
07:01PM 47.5128 -122.2940 147° Southeast 142 163 1,700  Level Seattle Center
07:02PM 47.4761 -122.2590 134° Southeast 197 227 3,900 3,120 Climbing Seattle Center
07:03PM 47.4297 -122.1890 57° Northeast 264 304 7,800 3,660 Climbing Seattle Center
07:03PM 47.4369 -122.1440 43° Northeast 12,000 3,540 Climbing Seattle Center
07:04PM 47.4711 -122.0960 11° North 321 369 11,000 -240 Descending Seattle Center
07:04PM 47.5089 -122.0850 310° West 407 468 11,800 600 Climbing Seattle Center
07:05PM 47.5531 -122.1640 285° West 294 338 12,000 60 Climbing Seattle Center
07:06PM 47.5717 -122.2660 284° West 241 277 12,000  Level Seattle Center
07:07PM 47.5883 -122.3660 286° West 241 277 12,000  Level Seattle Center
07:08PM 47.6069 -122.4650 288° West 251 289 12,000  Level Seattle Center
07:09PM 47.6278 -122.5580 286° West 251 289 12,000  Level Seattle Center
07:10PM 47.6461 -122.6550 288° West 244 281 12,000  Level Seattle Center
07:11PM 47.6667 -122.7510 285° West 244 281 12,000  Level Seattle Center
07:12PM 47.6850 -122.8510 287° West 249 287 12,000  Level Seattle Center
07:13PM 47.7053 -122.9510 286° West 249 287 12,000  Level Seattle Center
07:14PM 47.7233 -123.0470 299° West 249 287 12,000  Level Seattle Center
07:15PM 47.7583 -123.1420 299° West 249 287 12,000 60 Level Seattle Center
07:16PM 47.7931 -123.2340 304° West 259 298 12,200 120 Climbing Seattle Center
07:17PM 47.8342 -123.3260 307° West 270 311 12,300 -300 Climbing Seattle Center
07:18PM 47.8772 -123.4120 304° West 270 311 11,700 -660 Descending Seattle Center
07:19PM 47.9181 -123.5020 302° West 270 311 11,000 180 Descending Seattle Center
07:20PM 47.9547 -123.5910 295° West 265 305 12,100 600 Climbing Seattle Center
07:21PM 47.9869 -123.6960 300° West 253 291 12,300  Climbing Seattle Center
07:22PM 48.0214 -123.7850 301° West 248 285 12,200 -360 Descending Seattle Center
07:23PM 48.0558 -123.8710 298° West 248 285 11,600 -120 Descending Seattle Center
07:24PM 48.0881 -123.9610 267° West 248 285 12,000 180 Climbing Seattle Center
07:25PM 48.0850 -124.0440 133° Southeast 204 235 12,000  Level Seattle Center
07:26PM 48.0458 -123.9820 83° East 66 76 12,100  Climbing Seattle Center
07:27PM 48.0561 -123.8620 81° East 160 184 12,000  Descending Seattle Center
07:28PM 48.0681 -123.7540 82° East 206 237 12,100  Climbing Seattle Center
07:29PM 48.0778 -123.6520 85° East 235 270 12,100  Level Seattle Center
07:30PM 48.0828 -123.5600 89° East 235 270 12,100  Level Seattle Center
07:31PM 48.0839 -123.4610 91° East 235 270 12,100  Level Seattle Center
07:32PM 48.0825 -123.3700 89° East 230 265 12,100  Level Seattle Center
07:33PM 48.0831 -123.2830 88° East 218 251 12,100  Level Seattle Center
07:34PM 48.0850 -123.2150 97° East 200 230 12,100  Level Seattle Center
07:35PM 48.0789 -123.1370 92° East 189 217 12,100 -60 Level Seattle Center
07:36PM 48.0769 -123.0530 96° East 189 217 12,000 -120 Descending Seattle Center
07:37PM 48.0711 -122.9690 81° East 196 226 11,900 -60 Descending Seattle Center
07:38PM 48.0822 -122.8580 50° Northeast 232 267 11,900  Level Seattle Center
07:39PM 48.1325 -122.7680 47° Northeast 257 296 12,000  Climbing Seattle Center
07:40PM 48.1886 -122.6770 49° Northeast 273 314 12,000  Level Seattle Center
07:41PM 48.2386 -122.5900 48° Northeast 279 321 12,000  Level Seattle Center
07:42PM 48.2886 -122.5060 74° East 279 321 12,000 -240 Level Seattle Center
07:43PM 48.3097 -122.3970 88° East 257 296 11,600 -1,080 Descending Seattle Center
07:44PM 48.3108 -122.3380 82° East 269 310 10,500 -1,500 Descending Seattle Center
07:44PM 48.3161 -122.2830 88° East 257 296 10,100 -600 Descending Seattle Center
07:45PM 48.3172 -122.2320 80° East 271 312 10,000 -600 Descending Seattle Center
07:45PM 48.3247 -122.1710 82° East 263 303 9,500 -1,620 Descending Seattle Center
07:46PM 48.3300 -122.1120 34° Northeast 270 311 8,200 -1,740 Descending Seattle Center
07:46PM 48.3597 -122.0820 349° North 242 278 7,800 -1,260 Descending Seattle Center
07:47PM 48.3928 -122.0920 313° West 262 302 7,100 -1,020 Descending Seattle Center
07:47PM 48.4131 -122.1250 284° West 154 177 6,800 -420 Descending Seattle Center
07:48PM 48.4206 -122.1690 288° West 173 199 6,700 -720 Descending Seattle Center
07:48PM 48.4261 -122.1940 269° West 129 148 6,100 -840 Descending Seattle Center
07:49PM 48.4256 -122.2310 284° West 148 170 5,900 -120 Descending Seattle Center
07:49PM 48.4292 -122.2530 262° West 129 148 6,000 -240 Climbing Seattle Center
07:50PM 48.4264 -122.2840 264° West 146 168 5,700 -840 Descending Seattle Center
07:50PM 48.4236 -122.3220 178° South 139 160 5,200 -600 Descending Seattle Center
07:51PM 48.3903 -122.3200 163° South 114 131 4,700 -660 Descending Seattle Center
07:52PM 48.3533 -122.3030 168° South 114 131 3,900 -840 Descending Seattle Center
07:53PM 48.3203 -122.2920 181° South 119 137 3,100 -480 Descending Seattle Center
07:54PM 48.2847 -122.2930 179° South 125 144 3,000 -60 Descending Seattle Center
07:55PM 48.2494 -122.2920 181° South 125 144 3,000  Level Seattle Center
07:56PM 48.2142 -122.2930 178° South 125 144 3,000  Level Seattle Center
07:57PM 48.1767 -122.2910 182° South 125 144 3,000  Level Seattle Center
07:58PM 48.1414 -122.2930 178° South 130 150 3,000  Level Seattle Center
07:59PM 48.1061 -122.2910 178° South 130 150 3,000  Level Seattle Center
08:00PM 48.0706 -122.2890 179° South 130 150 3,000 -60 Level Seattle Center
08:01PM 48.0394 -122.2880 178° South 130 150 2,900 -360 Descending Seattle Center
08:02PM 48.0144 -122.2870 182° South 118 136 2,300 -600 Descending Seattle Center
08:03PM 47.9833 -122.2890 178° South 113 130 1,800 -600 Descending Seattle Center
08:04PM 47.9522 -122.2870 179° South 113 130 1,200 -480 Descending Seattle Center
08:05PM 47.9189 -122.2860 179° South 113 130 900 -300 Descending Seattle Center